ULLI/LED METAR and TAF weather

Enter ICAO airport designator
Station Type Date Time Source
ULLI METAR 2019/04/23 22:00 UTC NOAA

ULLI 232200Z 25002MPS CAVOK 09/01 Q1028 R28L/090060 NOSIG


Station Type Date Time Source
ULLI Decoded METAR 2019/04/23 22:00 UTC NOAA

St. Peterburg, Russia (ULLI) 59-58N 030-18E 6M
Apr 23, 2019 - 06:00 PM EDT / 2019.04.23 2200 UTC
Wind: from the WSW (250 degrees) at 4 MPH (4 KT):0
Visibility: greater than 7 mile(s):0
Temperature: 48 F (9 C)
Dew Point: 33 F (1 C)
Relative Humidity: 57%
Pressure (altimeter): 30.36 in. Hg (1028 hPa)
ob: ULLI 232200Z 25002MPS CAVOK 09/01 Q1028 R28L/090060 NOSIG
cycle: 22

Station Type Date Time Source
ULLI TAF 2019/04/23 21:54 UTC NOAA

TAF TAF ULLI 231956Z 2321/2421 26003G08MPS 9999 NSC
TEMPO 2400/2405 3100 BR
TEMPO 2409/2418 31004G09MPS

Example: see airport list